Terminal Aerodrome Forecast
Issued by NWS

Home | Current Version | Previous Version | Text Only | Print | Product List | Glossary Off
Versions: 1 2 3 4 5 6 7 8 9 10 11 12 13 14 15

000
FTUS43 KGRB 252320
TAFATW
TAF
KATW 252320Z 2600/2624 28010KT P6SM SCT023 OVC035
      TEMPO 2600/2604 BKN023
     FM260600 30005KT P6SM SCT035
     FM261400 33006KT P6SM SCT028 BKN035
     FM262000 33006KT P6SM SCT045=

USA.gov is the U.S. government's official web portal to all federal, state and local government web resources and services.